sensor_id;sensor_type;location;lat;lon;timestamp;temperature;humidity
21417;DHT22;10869;52.238;10.716;2024-02-15T00:02:22;9.50;99.90
21417;DHT22;10869;52.238;10.716;2024-02-15T00:04:49;9.50;99.90
21417;DHT22;10869;52.238;10.716;2024-02-15T00:07:15;9.50;99.90
21417;DHT22;10869;52.238;10.716;2024-02-15T00:09:41;9.50;99.90
21417;DHT22;10869;52.238;10.716;2024-02-15T00:12:08;9.50;99.90
21417;DHT22;10869;52.238;10.716;2024-02-15T00:14:35;9.50;99.90
21417;DHT22;10869;52.238;10.716;2024-02-15T00:17:04;9.50;99.90
21417;DHT22;10869;52.238;10.716;2024-02-15T00:19:30;9.50;99.90
21417;DHT22;10869;52.238;10.716;2024-02-15T00:21:57;9.50;99.90
21417;DHT22;10869;52.238;10.716;2024-02-15T00:24:23;9.50;99.90
21417;DHT22;10869;52.238;10.716;2024-02-15T00:26:50;9.60;99.90
21417;DHT22;10869;52.238;10.716;2024-02-15T00:29:16;9.60;99.90
21417;DHT22;10869;52.238;10.716;2024-02-15T00:31:44;9.60;99.90
21417;DHT22;10869;52.238;10.716;2024-02-15T00:34:10;9.60;99.90
21417;DHT22;10869;52.238;10.716;2024-02-15T00:36:37;9.60;99.90
21417;DHT22;10869;52.238;10.716;2024-02-15T00:39:03;9.60;99.90
21417;DHT22;10869;52.238;10.716;2024-02-15T00:41:32;9.60;99.90
21417;DHT22;10869;52.238;10.716;2024-02-15T00:44:00;9.60;99.90
21417;DHT22;10869;52.238;10.716;2024-02-15T00:46:26;9.60;99.90
21417;DHT22;10869;52.238;10.716;2024-02-15T00:48:55;9.70;99.90
21417;DHT22;10869;52.238;10.716;2024-02-15T00:51:21;9.70;99.90
21417;DHT22;10869;52.238;10.716;2024-02-15T00:53:47;9.70;99.90
21417;DHT22;10869;52.238;10.716;2024-02-15T00:56:13;9.70;99.90
21417;DHT22;10869;52.238;10.716;2024-02-15T00:58:39;9.70;99.90
21417;DHT22;10869;52.238;10.716;2024-02-15T01:01:05;9.70;99.90
21417;DHT22;10869;52.238;10.716;2024-02-15T01:03:31;9.70;99.90
21417;DHT22;10869;52.238;10.716;2024-02-15T01:05:57;9.70;99.90
21417;DHT22;10869;52.238;10.716;2024-02-15T01:08:23;9.70;99.90
21417;DHT22;10869;52.238;10.716;2024-02-15T01:10:49;9.70;99.90
21417;DHT22;10869;52.238;10.716;2024-02-15T01:16:42;9.80;99.90
21417;DHT22;10869;52.238;10.716;2024-02-15T01:19:09;9.80;99.90
21417;DHT22;10869;52.238;10.716;2024-02-15T01:21:36;9.80;99.90
21417;DHT22;10869;52.238;10.716;2024-02-15T01:24:02;9.80;99.90
21417;DHT22;10869;52.238;10.716;2024-02-15T01:26:33;9.80;99.90
21417;DHT22;10869;52.238;10.716;2024-02-15T01:29:00;9.80;99.90
21417;DHT22;10869;52.238;10.716;2024-02-15T01:31:26;9.80;99.90
21417;DHT22;10869;52.238;10.716;2024-02-15T01:33:52;9.80;99.90
21417;DHT22;10869;52.238;10.716;2024-02-15T01:36:18;9.80;99.90
21417;DHT22;10869;52.238;10.716;2024-02-15T01:38:44;9.80;99.90
21417;DHT22;10869;52.238;10.716;2024-02-15T01:41:10;9.80;99.90
21417;DHT22;10869;52.238;10.716;2024-02-15T01:43:37;9.80;99.90
21417;DHT22;10869;52.238;10.716;2024-02-15T01:46:10;9.80;99.90
21417;DHT22;10869;52.238;10.716;2024-02-15T01:48:37;9.80;99.90
21417;DHT22;10869;52.238;10.716;2024-02-15T01:51:03;9.80;99.90
21417;DHT22;10869;52.238;10.716;2024-02-15T01:53:30;9.80;99.90
21417;DHT22;10869;52.238;10.716;2024-02-15T01:55:57;9.80;99.90
21417;DHT22;10869;52.238;10.716;2024-02-15T01:58:27;9.80;99.90
21417;DHT22;10869;52.238;10.716;2024-02-15T02:00:53;9.80;99.90
21417;DHT22;10869;52.238;10.716;2024-02-15T02:06:44;9.80;99.90
21417;DHT22;10869;52.238;10.716;2024-02-15T02:09:11;9.80;99.90
21417;DHT22;10869;52.238;10.716;2024-02-15T02:11:45;9.80;99.90
21417;DHT22;10869;52.238;10.716;2024-02-15T02:14:11;9.80;99.90
21417;DHT22;10869;52.238;10.716;2024-02-15T02:16:37;9.80;99.90
21417;DHT22;10869;52.238;10.716;2024-02-15T02:19:05;9.80;99.90
21417;DHT22;10869;52.238;10.716;2024-02-15T02:21:35;9.80;99.90
21417;DHT22;10869;52.238;10.716;2024-02-15T02:24:10;9.80;99.90
21417;DHT22;10869;52.238;10.716;2024-02-15T02:26:38;9.80;99.90
21417;DHT22;10869;52.238;10.716;2024-02-15T02:29:04;9.80;99.90
21417;DHT22;10869;52.238;10.716;2024-02-15T02:31:34;9.80;99.90
21417;DHT22;10869;52.238;10.716;2024-02-15T02:34:00;9.80;99.90
21417;DHT22;10869;52.238;10.716;2024-02-15T02:36:26;9.80;99.90
21417;DHT22;10869;52.238;10.716;2024-02-15T02:38:53;9.80;99.90
21417;DHT22;10869;52.238;10.716;2024-02-15T02:41:19;9.70;99.90
21417;DHT22;10869;52.238;10.716;2024-02-15T02:43:45;9.80;99.90
21417;DHT22;10869;52.238;10.716;2024-02-15T02:46:11;9.70;99.90
21417;DHT22;10869;52.238;10.716;2024-02-15T02:48:38;9.70;99.90
21417;DHT22;10869;52.238;10.716;2024-02-15T02:51:04;9.70;99.90
21417;DHT22;10869;52.238;10.716;2024-02-15T02:53:30;9.70;99.90
21417;DHT22;10869;52.238;10.716;2024-02-15T02:55:56;9.70;99.90
21417;DHT22;10869;52.238;10.716;2024-02-15T02:58:23;9.70;99.90
21417;DHT22;10869;52.238;10.716;2024-02-15T03:00:49;9.60;99.90
21417;DHT22;10869;52.238;10.716;2024-02-15T03:03:16;9.60;99.90
21417;DHT22;10869;52.238;10.716;2024-02-15T03:05:42;9.60;99.90
21417;DHT22;10869;52.238;10.716;2024-02-15T03:08:14;9.70;99.90
21417;DHT22;10869;52.238;10.716;2024-02-15T03:10:43;9.70;99.90
21417;DHT22;10869;52.238;10.716;2024-02-15T03:13:09;9.70;99.90
21417;DHT22;10869;52.238;10.716;2024-02-15T03:15:36;9.70;99.90
21417;DHT22;10869;52.238;10.716;2024-02-15T03:18:02;9.60;99.90
21417;DHT22;10869;52.238;10.716;2024-02-15T03:20:38;9.70;99.90
21417;DHT22;10869;52.238;10.716;2024-02-15T03:23:04;9.70;99.90
21417;DHT22;10869;52.238;10.716;2024-02-15T03:25:30;9.70;99.90
21417;DHT22;10869;52.238;10.716;2024-02-15T03:27:58;9.70;99.90
21417;DHT22;10869;52.238;10.716;2024-02-15T03:30:27;9.70;99.90
21417;DHT22;10869;52.238;10.716;2024-02-15T03:32:57;9.80;99.90
21417;DHT22;10869;52.238;10.716;2024-02-15T03:35:25;9.80;99.90
21417;DHT22;10869;52.238;10.716;2024-02-15T03:37:52;9.80;99.90
21417;DHT22;10869;52.238;10.716;2024-02-15T03:40:22;9.80;99.90
21417;DHT22;10869;52.238;10.716;2024-02-15T03:42:48;9.80;99.90
21417;DHT22;10869;52.238;10.716;2024-02-15T03:45:17;9.80;99.90
21417;DHT22;10869;52.238;10.716;2024-02-15T03:47:43;9.80;99.90
21417;DHT22;10869;52.238;10.716;2024-02-15T03:50:09;9.80;99.90
21417;DHT22;10869;52.238;10.716;2024-02-15T03:52:36;9.80;99.90
21417;DHT22;10869;52.238;10.716;2024-02-15T03:55:02;9.80;99.90
21417;DHT22;10869;52.238;10.716;2024-02-15T03:57:29;9.90;99.90
21417;DHT22;10869;52.238;10.716;2024-02-15T03:59:55;9.90;99.90
21417;DHT22;10869;52.238;10.716;2024-02-15T04:02:26;9.90;99.90
21417;DHT22;10869;52.238;10.716;2024-02-15T04:04:55;9.90;99.90
21417;DHT22;10869;52.238;10.716;2024-02-15T04:07:23;9.90;99.90
21417;DHT22;10869;52.238;10.716;2024-02-15T04:09:53;9.90;99.90
21417;DHT22;10869;52.238;10.716;2024-02-15T04:12:19;9.90;99.90
21417;DHT22;10869;52.238;10.716;2024-02-15T04:14:45;9.90;99.90
21417;DHT22;10869;52.238;10.716;2024-02-15T04:17:13;9.90;99.90
21417;DHT22;10869;52.238;10.716;2024-02-15T04:19:46;9.90;99.90
21417;DHT22;10869;52.238;10.716;2024-02-15T04:22:12;9.90;99.90
21417;DHT22;10869;52.238;10.716;2024-02-15T04:24:38;10.00;99.90
21417;DHT22;10869;52.238;10.716;2024-02-15T04:27:09;10.00;99.90
21417;DHT22;10869;52.238;10.716;2024-02-15T04:29:42;10.00;99.90
21417;DHT22;10869;52.238;10.716;2024-02-15T04:32:10;10.00;99.90
21417;DHT22;10869;52.238;10.716;2024-02-15T04:34:37;10.00;99.90
21417;DHT22;10869;52.238;10.716;2024-02-15T04:37:03;10.00;99.90
21417;DHT22;10869;52.238;10.716;2024-02-15T04:39:33;10.00;99.90
21417;DHT22;10869;52.238;10.716;2024-02-15T04:41:59;10.00;99.90
21417;DHT22;10869;52.238;10.716;2024-02-15T04:44:25;10.00;99.90
21417;DHT22;10869;52.238;10.716;2024-02-15T04:46:53;10.00;99.90
21417;DHT22;10869;52.238;10.716;2024-02-15T04:49:19;10.00;99.90
21417;DHT22;10869;52.238;10.716;2024-02-15T04:51:45;10.00;99.90
21417;DHT22;10869;52.238;10.716;2024-02-15T04:54:13;10.10;99.90
21417;DHT22;10869;52.238;10.716;2024-02-15T04:56:42;10.10;99.90
21417;DHT22;10869;52.238;10.716;2024-02-15T04:59:09;10.10;99.90
21417;DHT22;10869;52.238;10.716;2024-02-15T05:01:40;10.10;99.90
21417;DHT22;10869;52.238;10.716;2024-02-15T05:04:09;10.10;99.90
21417;DHT22;10869;52.238;10.716;2024-02-15T05:06:35;10.10;99.90
21417;DHT22;10869;52.238;10.716;2024-02-15T05:09:04;10.10;99.90
21417;DHT22;10869;52.238;10.716;2024-02-15T05:11:38;10.10;99.90
21417;DHT22;10869;52.238;10.716;2024-02-15T05:14:07;10.10;99.90
21417;DHT22;10869;52.238;10.716;2024-02-15T05:16:34;10.10;99.90
21417;DHT22;10869;52.238;10.716;2024-02-15T05:19:00;10.10;99.90
21417;DHT22;10869;52.238;10.716;2024-02-15T05:21:26;10.10;99.90
21417;DHT22;10869;52.238;10.716;2024-02-15T05:23:52;10.10;99.90
21417;DHT22;10869;52.238;10.716;2024-02-15T05:26:18;10.10;99.90
21417;DHT22;10869;52.238;10.716;2024-02-15T05:28:49;10.10;99.90
21417;DHT22;10869;52.238;10.716;2024-02-15T05:31:21;10.10;99.90
21417;DHT22;10869;52.238;10.716;2024-02-15T05:33:51;10.20;99.90
21417;DHT22;10869;52.238;10.716;2024-02-15T05:36:19;10.20;99.90
21417;DHT22;10869;52.238;10.716;2024-02-15T05:38:52;10.10;99.90
21417;DHT22;10869;52.238;10.716;2024-02-15T05:41:19;10.20;99.90
21417;DHT22;10869;52.238;10.716;2024-02-15T05:43:47;10.20;99.90
21417;DHT22;10869;52.238;10.716;2024-02-15T05:46:14;10.20;99.90
21417;DHT22;10869;52.238;10.716;2024-02-15T05:48:40;10.20;99.90
21417;DHT22;10869;52.238;10.716;2024-02-15T05:51:07;10.20;99.90
21417;DHT22;10869;52.238;10.716;2024-02-15T05:53:34;10.20;99.90
21417;DHT22;10869;52.238;10.716;2024-02-15T05:56:08;10.20;99.90
21417;DHT22;10869;52.238;10.716;2024-02-15T05:58:34;10.20;99.90
21417;DHT22;10869;52.238;10.716;2024-02-15T06:01:04;10.20;99.90
21417;DHT22;10869;52.238;10.716;2024-02-15T06:03:33;10.20;99.90
21417;DHT22;10869;52.238;10.716;2024-02-15T06:06:00;10.20;99.90
21417;DHT22;10869;52.238;10.716;2024-02-15T06:08:30;10.20;99.90
21417;DHT22;10869;52.238;10.716;2024-02-15T06:10:56;10.20;99.90
21417;DHT22;10869;52.238;10.716;2024-02-15T06:13:23;10.20;99.90
21417;DHT22;10869;52.238;10.716;2024-02-15T06:15:49;10.20;99.90
21417;DHT22;10869;52.238;10.716;2024-02-15T06:18:29;10.20;99.90
21417;DHT22;10869;52.238;10.716;2024-02-15T06:20:58;10.30;99.90
21417;DHT22;10869;52.238;10.716;2024-02-15T06:23:25;10.30;99.90
21417;DHT22;10869;52.238;10.716;2024-02-15T06:25:54;10.30;99.90
21417;DHT22;10869;52.238;10.716;2024-02-15T06:28:20;10.30;99.90
21417;DHT22;10869;52.238;10.716;2024-02-15T06:31:08;10.30;99.90
21417;DHT22;10869;52.238;10.716;2024-02-15T06:33:53;10.30;99.90
21417;DHT22;10869;52.238;10.716;2024-02-15T06:36:46;10.30;99.90
21417;DHT22;10869;52.238;10.716;2024-02-15T06:39:31;10.30;99.90
21417;DHT22;10869;52.238;10.716;2024-02-15T06:42:14;10.30;99.90
21417;DHT22;10869;52.238;10.716;2024-02-15T06:44:47;10.30;99.90
21417;DHT22;10869;52.238;10.716;2024-02-15T06:47:14;10.30;99.90
21417;DHT22;10869;52.238;10.716;2024-02-15T06:49:43;10.30;99.90
21417;DHT22;10869;52.238;10.716;2024-02-15T06:52:11;10.40;99.90
21417;DHT22;10869;52.238;10.716;2024-02-15T06:54:41;10.30;99.90
21417;DHT22;10869;52.238;10.716;2024-02-15T06:57:07;10.30;99.90
21417;DHT22;10869;52.238;10.716;2024-02-15T07:02:08;10.40;99.90
21417;DHT22;10869;52.238;10.716;2024-02-15T07:04:35;10.40;99.90
21417;DHT22;10869;52.238;10.716;2024-02-15T07:07:02;10.40;99.90
21417;DHT22;10869;52.238;10.716;2024-02-15T07:12:05;10.50;99.90
21417;DHT22;10869;52.238;10.716;2024-02-15T07:17:09;10.50;99.90
21417;DHT22;10869;52.238;10.716;2024-02-15T07:19:36;10.50;99.90
21417;DHT22;10869;52.238;10.716;2024-02-15T07:22:03;10.50;99.90
21417;DHT22;10869;52.238;10.716;2024-02-15T07:24:29;10.50;99.90
21417;DHT22;10869;52.238;10.716;2024-02-15T07:26:56;10.60;99.90
21417;DHT22;10869;52.238;10.716;2024-02-15T07:29:29;10.70;99.90
21417;DHT22;10869;52.238;10.716;2024-02-15T07:31:56;10.70;99.90
21417;DHT22;10869;52.238;10.716;2024-02-15T07:34:27;10.70;99.90
21417;DHT22;10869;52.238;10.716;2024-02-15T07:47:11;11.00;99.90
21417;DHT22;10869;52.238;10.716;2024-02-15T07:49:51;11.00;99.90
21417;DHT22;10869;52.238;10.716;2024-02-15T07:58:21;11.00;99.90
21417;DHT22;10869;52.238;10.716;2024-02-15T08:01:31;11.00;99.90
21417;DHT22;10869;52.238;10.716;2024-02-15T08:03:58;11.00;99.90
21417;DHT22;10869;52.238;10.716;2024-02-15T08:09:53;11.00;99.90
21417;DHT22;10869;52.238;10.716;2024-02-15T08:12:27;11.00;99.90
21417;DHT22;10869;52.238;10.716;2024-02-15T08:15:02;11.00;99.90
21417;DHT22;10869;52.238;10.716;2024-02-15T08:20:52;11.00;99.90
21417;DHT22;10869;52.238;10.716;2024-02-15T08:26:43;11.10;99.90
21417;DHT22;10869;52.238;10.716;2024-02-15T08:46:01;11.30;99.90
21417;DHT22;10869;52.238;10.716;2024-02-15T08:48:27;11.30;99.90
21417;DHT22;10869;52.238;10.716;2024-02-15T08:50:53;11.40;99.90
21417;DHT22;10869;52.238;10.716;2024-02-15T08:53:20;11.40;99.90
21417;DHT22;10869;52.238;10.716;2024-02-15T08:55:53;11.50;99.90
21417;DHT22;10869;52.238;10.716;2024-02-15T09:01:56;11.70;99.90
21417;DHT22;10869;52.238;10.716;2024-02-15T09:04:31;11.80;99.90
21417;DHT22;10869;52.238;10.716;2024-02-15T09:15:00;11.90;99.90
21417;DHT22;10869;52.238;10.716;2024-02-15T11:35:10;13.70;99.90
21417;DHT22;10869;52.238;10.716;2024-02-15T11:42:59;13.60;99.90
21417;DHT22;10869;52.238;10.716;2024-02-15T11:45:29;13.60;99.90
21417;DHT22;10869;52.238;10.716;2024-02-15T11:48:08;13.60;99.90
21417;DHT22;10869;52.238;10.716;2024-02-15T11:50:38;13.60;99.90
21417;DHT22;10869;52.238;10.716;2024-02-15T11:53:06;13.50;99.90
21417;DHT22;10869;52.238;10.716;2024-02-15T11:55:36;13.50;99.90
21417;DHT22;10869;52.238;10.716;2024-02-15T11:58:04;13.50;99.90
21417;DHT22;10869;52.238;10.716;2024-02-15T12:00:42;13.40;99.90
21417;DHT22;10869;52.238;10.716;2024-02-15T12:41:20;13.50;99.90
21417;DHT22;10869;52.238;10.716;2024-02-15T12:43:51;13.50;99.90
21417;DHT22;10869;52.238;10.716;2024-02-15T12:49:40;13.30;99.90
21417;DHT22;10869;52.238;10.716;2024-02-15T12:52:34;13.30;99.90
21417;DHT22;10869;52.238;10.716;2024-02-15T12:55:22;13.20;99.90
21417;DHT22;10869;52.238;10.716;2024-02-15T12:57:52;13.20;99.90
21417;DHT22;10869;52.238;10.716;2024-02-15T13:00:38;13.20;99.90
21417;DHT22;10869;52.238;10.716;2024-02-15T13:08:15;13.20;99.90
21417;DHT22;10869;52.238;10.716;2024-02-15T13:10:43;13.10;99.90
21417;DHT22;10869;52.238;10.716;2024-02-15T13:16:31;13.10;99.90
21417;DHT22;10869;52.238;10.716;2024-02-15T13:18:56;13.10;99.90
21417;DHT22;10869;52.238;10.716;2024-02-15T13:59:21;13.10;99.90
21417;DHT22;10869;52.238;10.716;2024-02-15T14:01:47;13.10;99.90
21417;DHT22;10869;52.238;10.716;2024-02-15T14:04:13;13.10;99.90
21417;DHT22;10869;52.238;10.716;2024-02-15T14:06:39;13.10;99.90
21417;DHT22;10869;52.238;10.716;2024-02-15T14:09:12;13.10;99.90
21417;DHT22;10869;52.238;10.716;2024-02-15T14:11:39;13.00;99.90
21417;DHT22;10869;52.238;10.716;2024-02-15T14:14:05;13.00;99.90
21417;DHT22;10869;52.238;10.716;2024-02-15T14:19:53;13.00;99.90
21417;DHT22;10869;52.238;10.716;2024-02-15T14:22:20;13.10;99.90
21417;DHT22;10869;52.238;10.716;2024-02-15T14:32:58;13.10;99.90
21417;DHT22;10869;52.238;10.716;2024-02-15T14:35:34;13.20;99.90
21417;DHT22;10869;52.238;10.716;2024-02-15T14:38:05;13.20;99.90
21417;DHT22;10869;52.238;10.716;2024-02-15T14:43:54;13.10;99.90
21417;DHT22;10869;52.238;10.716;2024-02-15T14:46:38;13.20;99.90
21417;DHT22;10869;52.238;10.716;2024-02-15T14:49:04;13.20;99.90
21417;DHT22;10869;52.238;10.716;2024-02-15T14:51:33;13.10;99.90
21417;DHT22;10869;52.238;10.716;2024-02-15T14:54:01;13.20;99.90
21417;DHT22;10869;52.238;10.716;2024-02-15T14:56:27;13.10;99.90
21417;DHT22;10869;52.238;10.716;2024-02-15T14:58:57;13.10;99.90
21417;DHT22;10869;52.238;10.716;2024-02-15T15:01:25;13.10;99.90
21417;DHT22;10869;52.238;10.716;2024-02-15T15:03:56;13.10;99.90
21417;DHT22;10869;52.238;10.716;2024-02-15T15:06:26;13.10;99.90
21417;DHT22;10869;52.238;10.716;2024-02-15T15:09:11;13.10;99.90
21417;DHT22;10869;52.238;10.716;2024-02-15T15:11:55;13.10;99.90
21417;DHT22;10869;52.238;10.716;2024-02-15T15:14:39;13.10;99.90
21417;DHT22;10869;52.238;10.716;2024-02-15T15:19:41;13.00;99.90
21417;DHT22;10869;52.238;10.716;2024-02-15T15:22:07;13.00;99.90
21417;DHT22;10869;52.238;10.716;2024-02-15T15:24:33;13.00;99.90
21417;DHT22;10869;52.238;10.716;2024-02-15T15:30:27;12.90;99.90
21417;DHT22;10869;52.238;10.716;2024-02-15T15:35:28;12.80;99.90
21417;DHT22;10869;52.238;10.716;2024-02-15T15:41:02;12.60;99.90
21417;DHT22;10869;52.238;10.716;2024-02-15T15:43:29;12.60;99.90
21417;DHT22;10869;52.238;10.716;2024-02-15T15:45:55;12.50;99.90
21417;DHT22;10869;52.238;10.716;2024-02-15T15:48:30;12.50;99.90
21417;DHT22;10869;52.238;10.716;2024-02-15T15:56:07;12.50;99.90
21417;DHT22;10869;52.238;10.716;2024-02-15T15:58:38;12.50;99.90
21417;DHT22;10869;52.238;10.716;2024-02-15T16:01:10;12.40;99.90
21417;DHT22;10869;52.238;10.716;2024-02-15T16:06:58;12.30;99.90
21417;DHT22;10869;52.238;10.716;2024-02-15T16:12:54;12.20;99.90
21417;DHT22;10869;52.238;10.716;2024-02-15T16:15:28;12.10;99.90
21417;DHT22;10869;52.238;10.716;2024-02-15T16:17:54;12.10;99.90
21417;DHT22;10869;52.238;10.716;2024-02-15T16:23:42;12.00;99.90
21417;DHT22;10869;52.238;10.716;2024-02-15T16:26:08;12.10;99.90
21417;DHT22;10869;52.238;10.716;2024-02-15T16:33:45;12.10;99.90
21417;DHT22;10869;52.238;10.716;2024-02-15T16:36:11;12.10;99.90
21417;DHT22;10869;52.238;10.716;2024-02-15T16:38:37;12.10;99.90
21417;DHT22;10869;52.238;10.716;2024-02-15T16:41:05;12.10;99.90
21417;DHT22;10869;52.238;10.716;2024-02-15T16:43:30;12.10;99.90
21417;DHT22;10869;52.238;10.716;2024-02-15T16:45:57;12.20;99.90
21417;DHT22;10869;52.238;10.716;2024-02-15T16:48:24;12.20;99.90
21417;DHT22;10869;52.238;10.716;2024-02-15T16:50:49;12.20;99.90
21417;DHT22;10869;52.238;10.716;2024-02-15T16:53:15;12.20;99.90
21417;DHT22;10869;52.238;10.716;2024-02-15T16:55:42;12.20;99.90
21417;DHT22;10869;52.238;10.716;2024-02-15T16:58:09;12.20;99.90
21417;DHT22;10869;52.238;10.716;2024-02-15T17:03:57;12.20;99.90
21417;DHT22;10869;52.238;10.716;2024-02-15T17:06:26;12.20;99.90
21417;DHT22;10869;52.238;10.716;2024-02-15T17:14:53;12.30;99.90
21417;DHT22;10869;52.238;10.716;2024-02-15T17:17:20;12.30;99.90
21417;DHT22;10869;52.238;10.716;2024-02-15T17:19:46;12.40;99.90
21417;DHT22;10869;52.238;10.716;2024-02-15T17:22:12;12.40;99.90
21417;DHT22;10869;52.238;10.716;2024-02-15T17:24:38;12.40;99.90
21417;DHT22;10869;52.238;10.716;2024-02-15T17:27:07;12.40;99.90
21417;DHT22;10869;52.238;10.716;2024-02-15T17:32:11;12.40;99.90
21417;DHT22;10869;52.238;10.716;2024-02-15T17:34:38;12.40;99.90
21417;DHT22;10869;52.238;10.716;2024-02-15T17:37:06;12.40;99.90
21417;DHT22;10869;52.238;10.716;2024-02-15T17:46:02;12.40;99.90
21417;DHT22;10869;52.238;10.716;2024-02-15T17:48:37;12.40;99.90
21417;DHT22;10869;52.238;10.716;2024-02-15T17:51:07;12.30;99.90
21417;DHT22;10869;52.238;10.716;2024-02-15T17:53:36;12.40;99.90
21417;DHT22;10869;52.238;10.716;2024-02-15T17:56:26;12.40;99.90
21417;DHT22;10869;52.238;10.716;2024-02-15T17:58:52;12.40;99.90
21417;DHT22;10869;52.238;10.716;2024-02-15T18:01:20;12.40;99.90
21417;DHT22;10869;52.238;10.716;2024-02-15T18:03:46;12.40;99.90
21417;DHT22;10869;52.238;10.716;2024-02-15T18:09:42;12.40;99.90
21417;DHT22;10869;52.238;10.716;2024-02-15T18:12:17;12.40;99.90
21417;DHT22;10869;52.238;10.716;2024-02-15T18:14:55;12.40;99.90
21417;DHT22;10869;52.238;10.716;2024-02-15T18:17:27;12.40;99.90
21417;DHT22;10869;52.238;10.716;2024-02-15T18:26:43;12.50;99.90
21417;DHT22;10869;52.238;10.716;2024-02-15T18:29:09;12.50;99.90
21417;DHT22;10869;52.238;10.716;2024-02-15T18:31:36;12.50;99.90
21417;DHT22;10869;52.238;10.716;2024-02-15T18:37:25;12.50;99.90
21417;DHT22;10869;52.238;10.716;2024-02-15T18:48:23;12.50;99.90
21417;DHT22;10869;52.238;10.716;2024-02-15T18:57:33;12.60;99.90
21417;DHT22;10869;52.238;10.716;2024-02-15T19:00:05;12.50;99.90
21417;DHT22;10869;52.238;10.716;2024-02-15T19:02:32;12.50;99.90
21417;DHT22;10869;52.238;10.716;2024-02-15T19:05:01;12.50;99.90
21417;DHT22;10869;52.238;10.716;2024-02-15T19:24:46;12.50;99.90
21417;DHT22;10869;52.238;10.716;2024-02-15T19:27:13;12.50;99.90
21417;DHT22;10869;52.238;10.716;2024-02-15T19:29:42;12.50;99.90
21417;DHT22;10869;52.238;10.716;2024-02-15T19:32:12;12.50;99.90
21417;DHT22;10869;52.238;10.716;2024-02-15T19:38:30;12.50;99.90
21417;DHT22;10869;52.238;10.716;2024-02-15T19:44:20;12.50;99.90
21417;DHT22;10869;52.238;10.716;2024-02-15T19:50:17;12.50;99.90
21417;DHT22;10869;52.238;10.716;2024-02-15T19:52:59;12.50;99.90
21417;DHT22;10869;52.238;10.716;2024-02-15T22:27:28;11.90;99.90
21417;DHT22;10869;52.238;10.716;2024-02-15T22:29:53;11.90;99.90
21417;DHT22;10869;52.238;10.716;2024-02-15T22:32:20;11.80;99.90
21417;DHT22;10869;52.238;10.716;2024-02-15T22:34:47;11.80;99.90
21417;DHT22;10869;52.238;10.716;2024-02-15T22:37:13;11.80;99.90
21417;DHT22;10869;52.238;10.716;2024-02-15T22:39:39;11.80;99.90
21417;DHT22;10869;52.238;10.716;2024-02-15T22:42:05;11.80;99.90
21417;DHT22;10869;52.238;10.716;2024-02-15T22:44:31;11.80;99.90
21417;DHT22;10869;52.238;10.716;2024-02-15T22:46:59;11.80;99.90
21417;DHT22;10869;52.238;10.716;2024-02-15T22:49:25;11.80;99.90
21417;DHT22;10869;52.238;10.716;2024-02-15T22:51:50;11.80;99.90
21417;DHT22;10869;52.238;10.716;2024-02-15T22:54:17;11.80;99.90
21417;DHT22;10869;52.238;10.716;2024-02-15T22:56:42;11.90;99.90
21417;DHT22;10869;52.238;10.716;2024-02-15T22:59:08;11.90;99.90
21417;DHT22;10869;52.238;10.716;2024-02-15T23:01:34;11.90;99.90
21417;DHT22;10869;52.238;10.716;2024-02-15T23:04:00;11.90;99.90
21417;DHT22;10869;52.238;10.716;2024-02-15T23:06:26;11.90;99.90
21417;DHT22;10869;52.238;10.716;2024-02-15T23:08:51;11.90;99.90
21417;DHT22;10869;52.238;10.716;2024-02-15T23:11:17;11.90;99.90
21417;DHT22;10869;52.238;10.716;2024-02-15T23:13:43;11.90;99.90
21417;DHT22;10869;52.238;10.716;2024-02-15T23:16:09;12.00;99.90
21417;DHT22;10869;52.238;10.716;2024-02-15T23:18:35;12.00;99.90
21417;DHT22;10869;52.238;10.716;2024-02-15T23:21:03;12.00;99.90
21417;DHT22;10869;52.238;10.716;2024-02-15T23:23:29;11.90;99.90
21417;DHT22;10869;52.238;10.716;2024-02-15T23:25:54;11.90;99.90
21417;DHT22;10869;52.238;10.716;2024-02-15T23:28:20;11.90;99.90
21417;DHT22;10869;52.238;10.716;2024-02-15T23:30:46;11.90;99.90
21417;DHT22;10869;52.238;10.716;2024-02-15T23:33:12;11.90;99.90
21417;DHT22;10869;52.238;10.716;2024-02-15T23:35:45;12.00;99.90
21417;DHT22;10869;52.238;10.716;2024-02-15T23:38:33;11.90;99.90
21417;DHT22;10869;52.238;10.716;2024-02-15T23:41:18;11.90;99.90
21417;DHT22;10869;52.238;10.716;2024-02-15T23:43:44;11.90;99.90
21417;DHT22;10869;52.238;10.716;2024-02-15T23:46:10;12.00;99.90
21417;DHT22;10869;52.238;10.716;2024-02-15T23:48:37;12.00;99.90
21417;DHT22;10869;52.238;10.716;2024-02-15T23:51:02;12.00;99.90
21417;DHT22;10869;52.238;10.716;2024-02-15T23:53:28;11.90;99.90
21417;DHT22;10869;52.238;10.716;2024-02-15T23:55:54;11.90;99.90
21417;DHT22;10869;52.238;10.716;2024-02-15T23:58:20;11.80;99.90
